X  Close Metar Aviation Weather Data     KMOD Modesto City Co-Harry Sham Field
Temperature
57°F Temperature
48°F Dewpoint
72% Humidity



Wind
8 MPH
13 KM/H
4 M/S
7 KTS



320°
NW
Current Conditions

Clear Clear
Pressure 1015.58 (hPa) - 29.99 (inHg)
Visibility 10 (mile) - 16.1 (km)
Airport
Airport-code KMOD

Location: Modesto City Co-Harry Sham Field
Distance: 20 (mi)

Metar:
KMOD 191453Z 32007KT 10SM CLR 14/09 A2999 RMK AO2 SLP157 T01390089 52017

Time: 19-05-2024 7:53 am PDT